Time;durP1;ratioP1;P1;durP2;ratioP2;P2;SDS_P1;SDS_P2;PMS_P1;PMS_P2;Temp;Humidity;BMP_temperature;BMP_pressure;BME280_temperature;BME280_humidity;BME280_pressure;Samples;Min_cycle;Max_cycle;Signal;HPM_P1;HPM_P2
2022/10/09 00:00:15;;;;;;;8.40;7.30;;;;;;;14.48;66.76;99822.78;5072128;28;20192;-72
2022/10/09 00:02:41;;;;;;;11.57;7.93;;;;;;;14.44;66.52;99813.53;5053442;28;20196;-72
2022/10/09 00:05:09;;;;;;;8.20;7.33;;;;;;;14.45;66.74;99822.34;5052997;28;20228;-72
2022/10/09 00:07:36;;;;;;;10.57;7.97;;;;;;;14.43;67.31;99814.56;5055290;28;20664;-72
2022/10/09 00:10:04;;;;;;;12.83;8.17;;;;;;;14.41;67.27;99811.28;5055437;28;20228;-72
2022/10/09 00:12:30;;;;;;;9.83;7.90;;;;;;;14.41;67.29;99810.44;5056106;28;20189;-73
2022/10/09 00:14:57;;;;;;;9.00;7.93;;;;;;;14.37;67.35;99809.25;5055256;28;20246;-73
2022/10/09 00:17:24;;;;;;;11.53;8.17;;;;;;;14.36;67.58;99813.78;5055402;28;20609;-73
2022/10/09 00:19:51;;;;;;;10.43;7.23;;;;;;;14.29;67.52;99794.28;5056054;28;20201;-73
2022/10/09 00:22:19;;;;;;;9.33;8.00;;;;;;;14.33;67.37;99803.50;5068830;28;20195;-73
2022/10/09 00:24:45;;;;;;;11.43;7.13;;;;;;;14.33;68.01;99800.84;5075238;28;20636;-72
2022/10/09 00:27:12;;;;;;;10.20;7.40;;;;;;;14.31;68.22;99805.59;5075524;28;20254;-72
2022/10/09 00:29:39;;;;;;;8.63;7.40;;;;;;;14.27;68.01;99801.69;5074997;28;20222;-72
2022/10/09 00:32:05;;;;;;;8.33;7.07;;;;;;;14.29;67.89;99798.81;5075197;28;20196;-73
2022/10/09 00:34:32;;;;;;;10.43;7.67;;;;;;;14.27;67.76;99799.03;5074964;28;20196;-73
2022/10/09 00:36:59;;;;;;;9.50;7.10;;;;;;;14.21;68.14;99783.03;5074782;28;20623;-73
2022/10/09 00:39:27;;;;;;;10.30;7.90;;;;;;;14.20;68.48;99798.19;5074922;28;20245;-73
2022/10/09 00:41:54;;;;;;;8.63;7.83;;;;;;;14.18;68.52;99800.25;5075822;28;20204;-73
2022/10/09 00:44:51;;;;;;;8.83;7.93;;;;;;;14.18;69.05;99797.56;5074934;28;20196;-73
2022/10/09 00:47:23;;;;;;;13.57;7.67;;;;;;;14.11;69.46;99799.47;5075010;28;20192;-73
2022/10/09 00:49:54;;;;;;;8.70;6.60;;;;;;;14.09;69.15;99796.16;5074951;28;20184;-72
2022/10/09 00:52:22;;;;;;;7.50;6.83;;;;;;;14.07;69.83;99797.41;5074888;28;20242;-72
2022/10/09 00:54:53;;;;;;;13.90;7.10;;;;;;;14.07;69.60;99806.25;5074532;28;20667;-72
2022/10/09 00:57:20;;;;;;;8.03;7.33;;;;;;;14.08;69.45;99799.88;5074785;28;20192;-72
2022/10/09 00:59:47;;;;;;;7.47;6.87;;;;;;;14.07;69.06;99798.25;5074348;28;20192;-72
2022/10/09 01:02:14;;;;;;;10.50;7.07;;;;;;;14.00;69.26;99794.78;5074360;28;20210;-72
2022/10/09 01:04:41;;;;;;;7.97;6.37;;;;;;;14.02;69.62;99803.41;5074550;28;20199;-72
2022/10/09 01:07:19;;;;;;;8.70;7.07;;;;;;;13.99;69.40;99803.81;5074580;28;20231;-72
2022/10/09 01:09:55;;;;;;;7.23;6.60;;;;;;;13.97;69.48;99797.84;5074071;28;20183;-72
2022/10/09 01:12:32;;;;;;;8.27;7.37;;;;;;;13.95;69.53;99799.09;5074805;28;20241;-72
2022/10/09 01:15:07;;;;;;;6.90;6.07;;;;;;;13.95;69.83;99807.94;5074160;28;20230;-72
2022/10/09 01:17:41;;;;;;;6.60;6.00;;;;;;;13.89;70.33;99800.75;5073450;28;20723;-72
2022/10/09 01:20:27;;;;;;;6.93;6.23;;;;;;;13.91;69.99;99797.88;5074193;28;20188;-72
2022/10/09 01:23:07;;;;;;;8.33;6.93;;;;;;;13.91;70.05;99806.72;5073933;28;20708;-73
2022/10/09 01:25:43;;;;;;;7.30;6.43;;;;;;;13.89;70.16;99802.63;5074004;28;20666;-73
2022/10/09 01:28:14;;;;;;;6.53;5.93;;;;;;;13.87;70.13;99792.13;5073842;28;20180;-73
2022/10/09 01:30:42;;;;;;;9.07;6.67;;;;;;;13.86;70.33;99790.50;5073911;28;20313;-72
2022/10/09 01:33:11;;;;;;;7.20;6.37;;;;;;;13.82;70.49;99794.63;5074002;28;20269;-72
2022/10/09 01:35:38;;;;;;;6.60;6.13;;;;;;;13.83;70.10;99798.09;5073780;28;20257;-72
2022/10/09 01:38:06;;;;;;;8.03;7.20;;;;;;;13.87;70.41;99804.66;5073614;28;20200;-73
2022/10/09 01:40:34;;;;;;;10.23;6.67;;;;;;;13.87;69.76;99799.31;5073942;28;20200;-72
2022/10/09 01:43:02;;;;;;;8.20;6.20;;;;;;;13.84;70.51;99797.09;5073799;28;20245;-72
2022/10/09 01:45:38;;;;;;;7.70;6.40;;;;;;;13.84;70.13;99803.22;5073727;28;20227;-73
2022/10/09 01:48:06;;;;;;;8.53;6.70;;;;;;;13.83;69.98;99806.94;5073484;28;20274;-72
2022/10/09 01:50:38;;;;;;;8.00;6.10;;;;;;;13.82;69.94;99799.97;5073463;28;20659;-73
2022/10/09 01:53:10;;;;;;;6.70;6.10;;;;;;;13.79;70.11;99804.88;5073694;28;20185;-73
2022/10/09 01:55:44;;;;;;;8.90;6.30;;;;;;;13.74;70.35;99792.19;5073895;28;20204;-73
2022/10/09 01:58:17;;;;;;;10.20;6.33;;;;;;;13.76;70.59;99803.47;5074091;28;20188;-73
2022/10/09 02:00:51;;;;;;;6.47;5.87;;;;;;;13.75;70.43;99803.66;5071479;28;20238;-73
2022/10/09 02:03:18;;;;;;;10.67;6.33;;;;;;;13.65;70.61;99798.78;5053172;28;20723;-72
2022/10/09 02:05:47;;;;;;;8.07;6.33;;;;;;;13.72;70.46;99815.56;5053418;28;20274;-72
2022/10/09 02:08:19;;;;;;;6.73;6.10;;;;;;;13.69;70.95;99815.97;5053355;28;20266;-72
2022/10/09 02:10:49;;;;;;;7.63;6.23;;;;;;;13.67;70.57;99818.06;5053246;28;20220;-72
2022/10/09 02:13:15;;;;;;;7.97;6.20;;;;;;;13.65;71.06;99814.78;5052989;28;20684;-72
2022/10/09 02:15:48;;;;;;;9.03;6.27;;;;;;;13.62;71.11;99815.19;5053298;28;20282;-72
2022/10/09 02:18:20;;;;;;;7.17;6.47;;;;;;;13.62;70.88;99820.53;5051856;28;20603;-72
2022/10/09 02:20:51;;;;;;;6.80;6.20;;;;;;;13.59;71.18;99815.59;5053915;28;20250;-74
2022/10/09 02:23:19;;;;;;;9.30;6.97;;;;;;;13.59;71.21;99818.28;5073462;28;20192;-73
2022/10/09 02:25:46;;;;;;;9.40;6.60;;;;;;;13.51;71.09;99812.31;5072561;28;20253;-73
2022/10/09 02:28:13;;;;;;;7.93;6.53;;;;;;;13.44;71.58;99816.84;5072320;28;20317;-72
2022/10/09 02:30:53;;;;;;;10.20;6.67;;;;;;;13.42;71.75;99816.22;5072922;28;20253;-72
2022/10/09 02:33:27;;;;;;;10.13;6.67;;;;;;;13.37;71.57;99811.53;5073785;28;20188;-72
2022/10/09 02:35:54;;;;;;;7.10;5.97;;;;;;;13.40;72.07;99821.75;5072580;28;20729;-72
2022/10/09 02:38:20;;;;;;;7.10;6.40;;;;;;;13.41;71.75;99820.75;5072827;28;20188;-73
2022/10/09 02:40:47;;;;;;;7.70;6.40;;;;;;;13.43;71.65;99826.69;5072372;28;20630;-73
2022/10/09 02:43:14;;;;;;;7.37;6.77;;;;;;;13.43;71.56;99821.38;5073602;28;20188;-73
2022/10/09 02:45:40;;;;;;;6.77;6.13;;;;;;;13.44;71.73;99823.00;5072521;28;20219;-73
2022/10/09 02:48:08;;;;;;;9.57;6.43;;;;;;;13.41;71.97;99828.78;5072350;28;20733;-73
2022/10/09 02:50:35;;;;;;;6.43;5.83;;;;;;;13.40;71.90;99820.97;5072555;28;20280;-73
2022/10/09 02:53:02;;;;;;;7.33;6.70;;;;;;;13.39;72.11;99824.66;5072600;28;20273;-73
2022/10/09 02:55:29;;;;;;;7.53;6.80;;;;;;;13.37;71.91;99824.88;5072535;28;20196;-72
2022/10/09 02:57:55;;;;;;;7.47;6.77;;;;;;;13.35;72.26;99834.91;5072253;28;20199;-73
2022/10/09 03:00:22;;;;;;;6.57;5.87;;;;;;;13.33;72.06;99830.81;5072286;28;20586;-71
2022/10/09 03:02:49;;;;;;;6.90;5.90;;;;;;;13.21;71.98;99830.63;5072390;28;20250;-72
2022/10/09 03:05:17;;;;;;;6.70;6.00;;;;;;;13.05;73.25;99832.84;5072325;28;20191;-72
2022/10/09 03:07:50;;;;;;;6.40;5.97;;;;;;;12.96;73.44;99840.19;5072060;28;20787;-72
2022/10/09 03:10:16;;;;;;;6.63;5.93;;;;;;;12.84;74.03;99841.81;5072075;28;20759;-72
2022/10/09 03:12:43;;;;;;;7.83;6.47;;;;;;;12.78;74.43;99839.94;5072071;28;20257;-71
2022/10/09 03:15:11;;;;;;;9.17;6.33;;;;;;;12.74;74.35;99836.03;5072140;28;20616;-72
2022/10/09 03:17:38;;;;;;;8.47;6.80;;;;;;;12.74;74.05;99841.34;5071950;28;20670;-71
2022/10/09 03:20:06;;;;;;;10.50;6.53;;;;;;;12.65;74.20;99831.91;5072548;28;20192;-71
2022/10/09 03:22:34;;;;;;;10.30;6.97;;;;;;;12.61;73.95;99841.34;5072181;28;20187;-71
2022/10/09 03:25:01;;;;;;;10.13;7.23;;;;;;;12.57;73.98;99840.09;5072059;28;20234;-71
2022/10/09 03:27:29;;;;;;;7.37;6.63;;;;;;;12.50;74.46;99843.75;5072079;28;20284;-71
2022/10/09 03:29:56;;;;;;;10.90;7.60;;;;;;;12.44;74.49;99845.38;5072673;28;20277;-72
2022/10/09 03:32:23;;;;;;;7.90;7.13;;;;;;;12.42;74.93;99846.59;5072972;28;20196;-72
2022/10/09 03:34:49;;;;;;;8.60;7.53;;;;;;;12.37;74.71;99841.84;5072073;28;20260;-73
2022/10/09 03:37:17;;;;;;;9.97;7.63;;;;;;;12.37;74.71;99846.38;5072059;28;20632;-72
2022/10/09 03:39:45;;;;;;;8.53;7.77;;;;;;;12.36;74.93;99853.53;5072616;28;20587;-72
2022/10/09 03:42:11;;;;;;;7.87;7.07;;;;;;;12.37;74.73;99843.72;5076762;28;20195;-72
2022/10/09 03:44:38;;;;;;;8.43;7.70;;;;;;;12.30;75.38;99850.84;5076313;28;20626;-73
2022/10/09 03:47:05;;;;;;;8.33;7.53;;;;;;;12.19;75.46;99846.91;5075643;28;20223;-73
2022/10/09 03:49:32;;;;;;;8.43;7.67;;;;;;;12.18;75.65;99853.25;5075982;28;20203;-73
2022/10/09 03:51:59;;;;;;;7.87;7.33;;;;;;;12.13;76.42;99845.00;5075707;28;20252;-72
2022/10/09 03:54:25;;;;;;;7.63;7.07;;;;;;;12.15;76.35;99850.97;5075963;28;20191;-73
2022/10/09 03:56:53;;;;;;;8.10;7.40;;;;;;;12.19;76.11;99854.91;5076004;28;20245;-72
2022/10/09 03:59:20;;;;;;;8.80;8.10;;;;;;;12.14;76.17;99849.34;5075622;28;20659;-72
2022/10/09 04:01:47;;;;;;;9.90;7.77;;;;;;;12.11;76.27;99852.41;5065002;28;20192;-71
2022/10/09 04:04:14;;;;;;;10.60;7.87;;;;;;;12.06;76.30;99852.16;5055728;28;20199;-71
2022/10/09 04:06:40;;;;;;;8.97;7.77;;;;;;;12.09;76.39;99854.41;5055608;28;20304;-71
2022/10/09 04:09:07;;;;;;;11.83;7.63;;;;;;;12.13;76.71;99855.66;5055926;28;20233;-71
2022/10/09 04:11:34;;;;;;;9.17;8.43;;;;;;;12.20;76.51;99853.03;5055456;28;20668;-72
2022/10/09 04:14:02;;;;;;;9.50;8.53;;;;;;;12.22;76.52;99854.50;5055300;28;20248;-72
2022/10/09 04:16:29;;;;;;;9.63;8.13;;;;;;;12.25;76.46;99855.94;5055103;28;20196;-71
2022/10/09 04:18:56;;;;;;;14.03;8.63;;;;;;;12.30;76.53;99859.66;5055237;28;20623;-72
2022/10/09 04:21:23;;;;;;;7.97;7.23;;;;;;;12.36;76.32;99856.19;5060949;28;20184;-72
2022/10/09 04:23:50;;;;;;;7.73;7.20;;;;;;;12.37;75.93;99849.03;5075378;28;20253;-72
2022/10/09 04:26:17;;;;;;;9.80;6.67;;;;;;;12.43;76.28;99853.56;5074827;28;20219;-72
2022/10/09 04:28:44;;;;;;;8.47;7.63;;;;;;;12.38;76.17;99848.84;5075567;28;20249;-72
2022/10/09 04:31:12;;;;;;;8.17;7.43;;;;;;;12.49;75.52;99868.78;5075158;28;20199;-73
2022/10/09 04:33:39;;;;;;;9.73;7.50;;;;;;;12.52;75.46;99860.34;5074931;28;20195;-72
2022/10/09 04:36:06;;;;;;;7.67;6.77;;;;;;;12.54;75.33;99861.78;5074823;28;20662;-74
2022/10/09 04:38:32;;;;;;;7.17;6.50;;;;;;;12.53;74.82;99864.69;5074803;28;20195;-74
2022/10/09 04:41:01;;;;;;;8.00;7.20;;;;;;;12.51;75.62;99870.22;5074715;28;20564;-77
2022/10/09 04:43:28;;;;;;;13.80;8.90;;;;;;;12.42;75.34;99867.91;5055462;28;20207;-76
2022/10/09 04:45:55;;;;;;;11.40;7.47;;;;;;;12.39;76.02;99870.97;5054443;28;20250;-74
2022/10/09 04:48:23;;;;;;;6.93;6.37;;;;;;;12.49;75.60;99869.56;5055162;28;20199;-73
2022/10/09 04:50:50;;;;;;;16.53;8.13;;;;;;;12.56;75.44;99870.44;5054323;28;20200;-74
2022/10/09 04:53:17;;;;;;;7.87;6.97;;;;;;;12.65;75.23;99869.22;5054024;28;20196;-73
2022/10/09 04:55:44;;;;;;;7.30;6.73;;;;;;;12.72;74.80;99874.56;5055078;28;20254;-70
2022/10/09 04:58:12;;;;;;;10.17;7.20;;;;;;;12.87;74.06;99877.91;5054628;28;20246;-72
2022/10/09 05:00:40;;;;;;;7.60;7.00;;;;;;;12.99;74.79;99879.81;5054186;28;20242;-72
2022/10/09 05:03:07;;;;;;;7.00;6.33;;;;;;;13.19;74.19;99878.00;5054661;28;20284;-72
2022/10/09 05:05:35;;;;;;;7.10;6.43;;;;;;;13.49;73.07;99881.94;5065595;28;20214;-72
2022/10/09 05:08:02;;;;;;;7.33;6.73;;;;;;;13.81;71.85;99883.75;5073316;28;20300;-72
2022/10/09 05:10:28;;;;;;;7.10;6.40;;;;;;;14.20;70.14;99894.38;5073588;28;20250;-71
2022/10/09 05:12:55;;;;;;;6.27;5.87;;;;;;;14.55;69.38;99894.91;5075356;28;20657;-72
2022/10/09 05:15:22;;;;;;;6.33;5.77;;;;;;;14.73;67.48;99900.38;5074129;28;20585;-72
2022/10/09 05:17:49;;;;;;;6.80;6.13;;;;;;;14.97;66.32;99891.63;5074389;28;20207;-71
2022/10/09 05:20:16;;;;;;;6.70;6.10;;;;;;;15.11;65.37;99899.34;5074274;28;20607;-71
2022/10/09 05:22:47;;;;;;;7.87;7.10;;;;;;;15.17;65.24;99898.50;5074246;28;20199;-71
2022/10/09 05:25:14;;;;;;;7.17;6.57;;;;;;;15.20;65.19;99898.06;5074334;28;20183;-71
2022/10/09 05:27:41;;;;;;;15.17;7.03;;;;;;;15.39;65.85;99897.16;5073764;28;20767;-71
2022/10/09 05:30:08;;;;;;;13.70;6.47;;;;;;;15.58;64.38;99906.91;5073886;28;20192;-72
2022/10/09 05:32:35;;;;;;;6.00;5.43;;;;;;;15.67;64.30;99910.94;5074176;28;20195;-72
2022/10/09 05:35:03;;;;;;;9.83;5.20;;;;;;;15.81;64.30;99914.34;5073773;28;20199;-71
2022/10/09 05:37:30;;;;;;;9.17;5.93;;;;;;;15.98;62.86;99910.06;5073926;28;20286;-72
2022/10/09 05:39:58;;;;;;;8.53;5.60;;;;;;;16.20;63.01;99915.84;5073576;28;20249;-71
2022/10/09 05:42:25;;;;;;;7.17;6.30;;;;;;;16.24;62.27;99922.34;5073859;28;20188;-72
2022/10/09 05:44:51;;;;;;;8.07;6.13;;;;;;;16.15;62.42;99923.69;5074674;28;20285;-72
2022/10/09 05:47:18;;;;;;;6.03;5.53;;;;;;;16.11;62.87;99920.66;5073597;28;20223;-72
2022/10/09 05:49:45;;;;;;;7.57;6.50;;;;;;;16.03;62.91;99920.94;5073521;28;20192;-72
2022/10/09 05:52:12;;;;;;;6.67;6.10;;;;;;;15.88;63.11;99923.94;5073339;28;20610;-72
2022/10/09 05:54:40;;;;;;;6.97;6.33;;;;;;;15.85;63.39;99928.94;5073428;28;20200;-72
2022/10/09 05:57:09;;;;;;;8.53;6.60;;;;;;;15.85;64.00;99919.03;5073228;28;20200;-72
2022/10/09 05:59:35;;;;;;;10.37;5.47;;;;;;;15.93;63.32;99934.81;5073881;28;20249;-72
2022/10/09 06:02:02;;;;;;;8.73;6.13;;;;;;;16.00;63.52;99937.44;5072990;28;20246;-71
2022/10/09 06:04:29;;;;;;;7.33;6.57;;;;;;;16.14;64.12;99932.78;5073364;28;20196;-72
2022/10/09 06:06:56;;;;;;;7.17;6.03;;;;;;;16.44;62.71;99933.72;5073396;28;20281;-71
2022/10/09 06:09:24;;;;;;;7.83;6.63;;;;;;;16.72;62.04;99936.72;5073029;28;20713;-72
2022/10/09 06:11:53;;;;;;;8.17;7.60;;;;;;;16.83;61.37;99939.47;5073875;28;20229;-71
2022/10/09 06:14:21;;;;;;;9.67;8.03;;;;;;;17.03;60.49;99950.75;5072861;28;20203;-70
2022/10/09 06:16:48;;;;;;;9.90;7.00;;;;;;;17.02;59.89;99954.50;5073020;28;20349;-71
2022/10/09 06:19:17;;;;;;;9.70;7.80;;;;;;;17.21;60.31;99945.38;5072831;28;20222;-70
2022/10/09 06:21:44;;;;;;;7.97;6.97;;;;;;;17.53;58.58;99952.16;5072600;28;20198;-70
2022/10/09 06:24:17;;;;;;;8.13;7.23;;;;;;;17.93;57.07;99955.84;5073077;28;20195;-70
2022/10/09 06:26:44;;;;;;;7.23;6.50;;;;;;;18.36;56.02;99958.25;5072541;28;20180;-69
2022/10/09 06:29:11;;;;;;;7.00;6.50;;;;;;;18.61;54.62;99973.09;5072634;28;20656;-69
2022/10/09 06:31:39;;;;;;;7.13;6.53;;;;;;;18.73;53.97;99967.66;5072518;28;20200;-70
2022/10/09 06:34:06;;;;;;;7.00;6.20;;;;;;;18.74;53.42;99962.06;5072818;28;20193;-70
2022/10/09 06:36:34;;;;;;;8.23;6.37;;;;;;;18.68;54.38;99973.78;5072359;28;20665;-70
2022/10/09 06:39:03;;;;;;;8.53;7.70;;;;;;;18.87;53.50;99982.53;5072378;28;20196;-70
2022/10/09 06:41:30;;;;;;;7.30;6.80;;;;;;;19.02;52.24;99974.75;5072191;28;20620;-70
2022/10/09 06:43:59;;;;;;;8.00;7.40;;;;;;;19.19;51.99;99973.75;5073303;28;20200;-69
2022/10/09 06:46:28;;;;;;;8.07;7.27;;;;;;;19.34;52.25;99978.66;5072857;28;20641;-69
2022/10/09 06:48:58;;;;;;;9.43;8.07;;;;;;;19.72;50.82;99987.72;5072369;28;20276;-68
2022/10/09 06:51:26;;;;;;;9.70;8.07;;;;;;;20.13;49.77;99978.44;5072189;28;20663;-68
2022/10/09 06:53:56;;;;;;;14.27;6.80;;;;;;;20.48;49.21;99987.09;5072201;28;20686;-68
2022/10/09 06:56:24;;;;;;;7.60;6.97;;;;;;;20.87;46.75;100002.22;5073120;28;20200;-69
2022/10/09 06:58:51;;;;;;;7.97;7.17;;;;;;;21.08;45.56;99985.25;5072885;28;20199;-68
2022/10/09 07:01:20;;;;;;;14.53;7.50;;;;;;;21.51;44.61;99992.50;5065211;28;20193;-68
2022/10/09 07:03:52;;;;;;;6.80;5.93;;;;;;;21.57;44.97;99986.88;5052091;28;20249;-69
2022/10/09 07:06:22;;;;;;;7.17;6.57;;;;;;;21.58;44.24;99983.09;5052525;28;20189;-68
2022/10/09 07:08:50;;;;;;;6.87;6.27;;;;;;;21.63;44.26;99985.00;5052108;28;20220;-69
2022/10/09 07:11:19;;;;;;;6.90;6.37;;;;;;;21.73;43.58;99983.28;5052369;28;20568;-70
2022/10/09 07:13:48;;;;;;;8.07;6.77;;;;;;;21.82;43.87;99979.03;5051547;28;20192;-69
2022/10/09 07:16:19;;;;;;;7.53;6.07;;;;;;;21.87;42.47;99976.38;5051638;28;20254;-70
2022/10/09 07:18:46;;;;;;;9.10;5.23;;;;;;;22.23;42.32;99975.56;5051627;28;20200;-69
2022/10/09 07:21:13;;;;;;;6.23;5.67;;;;;;;22.32;42.49;99974.00;5056238;28;20642;-70
2022/10/09 07:23:42;;;;;;;8.80;7.47;;;;;;;22.42;42.17;99982.19;5071618;28;20192;-69
2022/10/09 07:26:11;;;;;;;6.60;6.07;;;;;;;22.42;41.53;99973.28;5071640;28;20192;-69
2022/10/09 07:28:39;;;;;;;9.90;6.33;;;;;;;21.97;42.05;99976.44;5071825;28;20599;-69
2022/10/09 07:31:06;;;;;;;6.30;5.53;;;;;;;22.26;42.70;99980.44;5072070;28;20188;-69
2022/10/09 07:33:32;;;;;;;6.07;5.47;;;;;;;22.79;41.02;99977.56;5071598;28;20695;-70
2022/10/09 07:36:01;;;;;;;7.07;6.07;;;;;;;23.22;40.59;99974.53;5071619;28;20268;-70
2022/10/09 07:38:28;;;;;;;7.63;5.27;;;;;;;23.49;38.74;99975.13;5071498;28;20269;-71
2022/10/09 07:41:00;;;;;;;6.53;6.13;;;;;;;23.71;38.70;99974.91;5071869;28;20192;-71
2022/10/09 07:43:27;;;;;;;7.47;6.23;;;;;;;24.09;38.16;99983.38;5071599;28;20612;-70
2022/10/09 07:45:57;;;;;;;7.57;5.60;;;;;;;24.26;37.52;99981.19;5071473;28;20193;-70
2022/10/09 07:48:24;;;;;;;6.00;5.50;;;;;;;24.49;36.87;99985.22;5071572;28;20778;-70
2022/10/09 07:50:50;;;;;;;6.37;5.90;;;;;;;24.85;35.71;99993.06;5071848;28;20199;-70
2022/10/09 07:53:17;;;;;;;6.13;5.57;;;;;;;25.11;35.94;99988.31;5071760;28;20678;-70
2022/10/09 07:55:46;;;;;;;6.20;5.17;;;;;;;25.23;35.86;99985.31;5071509;28;20276;-70
2022/10/09 07:58:14;;;;;;;7.73;5.67;;;;;;;25.48;35.03;99983.28;5071440;28;20283;-70
2022/10/09 08:00:42;;;;;;;5.80;5.20;;;;;;;25.74;34.50;99986.66;5071410;28;20195;-71
2022/10/09 08:03:09;;;;;;;7.40;5.07;;;;;;;26.03;33.80;99987.53;5071861;28;20199;-70
2022/10/09 08:05:36;;;;;;;6.93;4.80;;;;;;;26.24;33.43;99987.09;5072051;28;20192;-70
2022/10/09 08:08:03;;;;;;;10.67;5.60;;;;;;;26.35;32.72;99982.38;5071207;28;20224;-70
2022/10/09 08:10:31;;;;;;;7.10;5.20;;;;;;;26.36;33.48;99979.34;5071605;28;20228;-70
2022/10/09 08:12:58;;;;;;;8.20;4.57;;;;;;;26.54;32.77;99975.09;5071509;28;20211;-70
2022/10/09 08:15:26;;;;;;;4.90;4.60;;;;;;;26.59;32.76;99984.06;5071278;28;20684;-70
2022/10/09 08:17:53;;;;;;;4.70;4.40;;;;;;;26.39;32.72;99980.69;5071382;28;20637;-70
2022/10/09 08:20:20;;;;;;;6.83;5.23;;;;;;;26.18;33.41;99981.97;5071256;28;20192;-70
2022/10/09 08:22:47;;;;;;;5.17;4.60;;;;;;;25.91;34.34;99981.63;5071100;28;20709;-71
2022/10/09 08:25:14;;;;;;;6.07;4.73;;;;;;;25.84;34.33;99981.94;5071442;28;20246;-70
2022/10/09 08:27:41;;;;;;;4.60;4.37;;;;;;;25.78;34.10;99980.38;5075042;28;20285;-70
2022/10/09 08:30:08;;;;;;;5.40;4.93;;;;;;;26.00;33.93;99977.25;5075156;28;20229;-70
2022/10/09 08:32:37;;;;;;;7.67;4.53;;;;;;;26.28;33.62;99971.81;5075286;28;20623;-71
2022/10/09 08:35:04;;;;;;;5.80;4.60;;;;;;;26.45;33.03;99977.63;5074925;28;20196;-71
2022/10/09 08:37:31;;;;;;;4.30;3.90;;;;;;;26.50;32.78;99968.59;5075159;28;20235;-70
2022/10/09 08:39:57;;;;;;;4.10;3.70;;;;;;;26.62;32.83;99971.78;5075046;28;20188;-70
2022/10/09 08:42:31;;;;;;;4.60;3.60;;;;;;;26.67;32.32;99963.53;5074599;28;20659;-70
2022/10/09 08:44:58;;;;;;;7.33;4.10;;;;;;;26.97;32.14;99963.19;5074878;28;20271;-70
2022/10/09 08:47:30;;;;;;;3.73;3.47;;;;;;;27.10;31.92;99962.47;5074463;28;20254;-70
2022/10/09 08:50:04;;;;;;;4.10;3.37;;;;;;;27.24;31.71;99957.97;5074886;28;20242;-70
2022/10/09 08:52:39;;;;;;;6.97;3.60;;;;;;;27.32;31.10;99965.50;5074648;28;20187;-69
2022/10/09 08:55:15;;;;;;;5.63;3.93;;;;;;;27.26;31.65;99955.72;5074692;28;20188;-70
2022/10/09 08:57:44;;;;;;;5.97;3.77;;;;;;;27.36;31.80;99950.16;5074973;28;20191;-69
2022/10/09 09:00:16;;;;;;;4.80;3.90;;;;;;;27.33;31.47;99948.00;5074621;28;20553;-69
2022/10/09 09:03:04;;;;;;;5.57;3.37;;;;;;;27.22;31.56;99951.97;5056634;28;20212;-69
2022/10/09 09:05:41;;;;;;;4.00;3.63;;;;;;;27.25;31.61;99948.66;5055189;28;20192;-70
2022/10/09 09:08:21;;;;;;;9.63;3.57;;;;;;;27.24;31.82;99949.78;5054637;28;20208;-70
2022/10/09 09:10:53;;;;;;;6.37;3.90;;;;;;;27.40;31.45;99945.72;5054455;28;20298;-69
2022/10/09 09:13:37;;;;;;;5.57;3.70;;;;;;;27.56;31.08;99949.88;5055064;28;20246;-70
2022/10/09 09:16:12;;;;;;;4.10;3.80;;;;;;;27.44;31.87;99938.56;5054826;28;20188;-69
2022/10/09 09:18:45;;;;;;;3.87;3.57;;;;;;;27.35;31.61;99932.94;5054027;28;20188;-70
2022/10/09 09:21:32;;;;;;;6.30;3.50;;;;;;;27.50;31.50;99934.66;5058515;28;20194;-69
2022/10/09 09:24:03;;;;;;;4.10;3.80;;;;;;;27.38;31.93;99928.81;5073876;28;20191;-69
2022/10/09 09:26:30;;;;;;;5.23;3.40;;;;;;;27.43;31.95;99928.75;5074179;28;20234;-69
2022/10/09 09:29:01;;;;;;;6.43;3.70;;;;;;;27.55;31.48;99931.84;5074339;28;20219;-69
2022/10/09 09:31:34;;;;;;;4.00;3.67;;;;;;;27.48;31.62;99921.28;5074080;28;20184;-69
2022/10/09 09:34:06;;;;;;;5.27;3.77;;;;;;;27.71;31.45;99920.41;5073801;28;20184;-69
2022/10/09 09:36:39;;;;;;;4.60;3.60;;;;;;;27.99;31.05;99921.31;5074413;28;20273;-69
2022/10/09 09:39:06;;;;;;;4.63;3.87;;;;;;;28.02;30.53;99931.66;5073131;28;20215;-69
2022/10/09 09:41:32;;;;;;;7.83;3.80;;;;;;;27.94;31.29;99921.41;5073642;28;20196;-70
2022/10/09 09:43:59;;;;;;;4.03;3.63;;;;;;;27.97;30.63;99915.38;5074357;28;20196;-69
2022/10/09 09:46:30;;;;;;;4.57;3.40;;;;;;;27.82;30.33;99921.06;5074128;28;20192;-69
2022/10/09 09:48:56;;;;;;;6.73;3.30;;;;;;;27.59;31.30;99917.31;5073624;28;20208;-69
2022/10/09 09:51:27;;;;;;;8.63;3.40;;;;;;;27.49;30.56;99919.38;5073515;28;20721;-69
2022/10/09 09:53:57;;;;;;;4.90;3.20;;;;;;;27.04;30.96;99898.19;5074290;28;20188;-69
2022/10/09 09:56:33;;;;;;;4.03;3.23;;;;;;;26.94;31.20;99910.03;5074771;28;20264;-68
2022/10/09 09:59:00;;;;;;;3.37;3.07;;;;;;;27.08;31.75;99907.41;5073321;28;20192;-69
2022/10/09 10:01:29;;;;;;;4.50;3.03;;;;;;;27.07;31.24;99900.34;5073193;28;20188;-70
2022/10/09 10:03:58;;;;;;;3.40;3.10;;;;;;;27.12;31.35;99905.72;5073388;28;20244;-69
2022/10/09 10:06:29;;;;;;;3.70;3.30;;;;;;;27.05;32.21;99897.06;5073448;28;20199;-70
2022/10/09 10:09:02;;;;;;;6.03;3.20;;;;;;;27.05;31.75;99897.06;5072918;28;20806;-70
2022/10/09 10:11:30;;;;;;;4.00;3.60;;;;;;;27.23;31.93;99907.22;5072973;28;20223;-70
2022/10/09 10:13:57;;;;;;;2.93;2.57;;;;;;;27.47;31.06;99897.03;5073134;28;20208;-70
2022/10/09 10:16:25;;;;;;;9.53;3.20;;;;;;;27.63;31.11;99901.13;5073230;28;20192;-70
2022/10/09 10:18:54;;;;;;;3.00;2.90;;;;;;;27.69;30.60;99898.03;5072774;28;20258;-70
2022/10/09 10:21:22;;;;;;;8.00;3.70;;;;;;;27.59;30.65;99898.19;5073223;28;20269;-70
2022/10/09 10:23:54;;;;;;;3.60;3.13;;;;;;;27.60;30.90;99896.28;5073775;28;20242;-70
2022/10/09 10:26:26;;;;;;;3.60;3.03;;;;;;;27.63;31.05;99887.50;5073117;28;20249;-70
2022/10/09 10:28:59;;;;;;;3.13;2.87;;;;;;;27.83;30.41;99895.38;5073090;28;20208;-70
2022/10/09 10:31:40;;;;;;;3.33;2.93;;;;;;;27.88;29.71;99892.56;5072717;28;20197;-70
2022/10/09 10:34:16;;;;;;;4.53;3.07;;;;;;;27.99;29.86;99867.50;5073149;28;20196;-70
2022/10/09 10:36:53;;;;;;;3.93;3.47;;;;;;;28.08;30.00;99881.28;5073829;28;20188;-70
2022/10/09 10:39:26;;;;;;;3.73;2.80;;;;;;;28.11;30.13;99870.56;5072571;28;20647;-70
2022/10/09 10:42:01;;;;;;;2.80;2.60;;;;;;;27.93;29.79;99870.63;5073402;28;20245;-70
2022/10/09 10:44:40;;;;;;;5.93;2.63;;;;;;;27.97;30.10;99866.19;5072456;28;20675;-70
2022/10/09 10:47:14;;;;;;;2.40;2.30;;;;;;;28.01;30.18;99869.94;5072721;28;20233;-70
2022/10/09 10:49:41;;;;;;;4.40;3.60;;;;;;;27.85;30.53;99858.47;5072343;28;20261;-70
2022/10/09 10:52:18;;;;;;;2.93;2.67;;;;;;;27.78;30.53;99854.47;5073208;28;20242;-69
2022/10/09 10:54:52;;;;;;;2.70;2.60;;;;;;;27.78;30.09;99843.56;5072098;28;20188;-70
2022/10/09 10:57:26;;;;;;;3.10;2.80;;;;;;;27.91;30.07;99851.81;5073167;28;20189;-70
2022/10/09 10:59:59;;;;;;;3.17;2.40;;;;;;;27.94;30.55;99847.66;5072718;28;20645;-70
2022/10/09 11:03:07;;;;;;;8.10;2.50;;;;;;;28.04;30.30;99847.47;5056485;28;20191;-70
2022/10/09 11:05:44;;;;;;;3.97;2.63;;;;;;;28.01;30.13;99842.63;5052103;28;20243;-70
2022/10/09 11:08:35;;;;;;;5.23;2.77;;;;;;;27.94;30.20;99843.03;5052106;28;20545;-70
2022/10/09 11:11:07;;;;;;;3.13;2.87;;;;;;;27.81;30.09;99837.50;5051820;28;20290;-69
2022/10/09 11:13:47;;;;;;;6.40;3.10;;;;;;;27.56;30.89;99840.69;5052064;28;20187;-69
2022/10/09 11:16:27;;;;;;;2.67;2.57;;;;;;;27.49;30.76;99840.22;5052398;28;20247;-70
2022/10/09 11:19:10;;;;;;;21.00;2.87;;;;;;;27.58;30.59;99833.81;5051936;28;20188;-69
2022/10/09 11:21:51;;;;;;;3.00;2.70;;;;;;;27.76;30.21;99830.19;5059807;28;20604;-70
2022/10/09 11:24:47;;;;;;;3.43;2.50;;;;;;;27.55;30.37;99833.56;5072478;28;20187;-70
2022/10/09 11:27:19;;;;;;;3.40;2.60;;;;;;;27.57;30.21;99828.63;5052459;28;20189;-70
2022/10/09 11:29:52;;;;;;;2.90;2.73;;;;;;;27.62;30.22;99832.09;5052396;28;20212;-70
2022/10/09 11:32:23;;;;;;;5.00;2.80;;;;;;;27.69;30.57;99826.25;5052192;28;20616;-70
2022/10/09 11:34:55;;;;;;;5.03;3.00;;;;;;;27.73;30.17;99824.53;5052669;28;20247;-70
2022/10/09 11:37:27;;;;;;;3.60;2.87;;;;;;;27.61;30.05;99826.94;5052984;28;20230;-69
2022/10/09 11:39:54;;;;;;;3.00;2.80;;;;;;;27.61;30.01;99816.00;5051704;28;20189;-70
2022/10/09 11:42:24;;;;;;;5.23;3.00;;;;;;;27.72;30.01;99817.47;5052018;28;20196;-70